sensor_id;sensor_type;location;lat;lon;timestamp;P1;durP1;ratioP1;P2;durP2;ratioP2
34982;SDS011;21187;50.976;13.720;2022-08-19T00:03:59;20.13;;;12.43;;
34982;SDS011;21187;50.976;13.720;2022-08-19T00:09:03;23.23;;;13.43;;
34982;SDS011;21187;50.976;13.720;2022-08-19T00:14:08;26.17;;;13.60;;
34982;SDS011;21187;50.976;13.720;2022-08-19T00:19:13;26.30;;;14.32;;
34982;SDS011;21187;50.976;13.720;2022-08-19T00:24:15;23.83;;;14.85;;
34982;SDS011;21187;50.976;13.720;2022-08-19T00:29:18;23.80;;;14.43;;
34982;SDS011;21187;50.976;13.720;2022-08-19T00:34:22;26.45;;;13.57;;
34982;SDS011;21187;50.976;13.720;2022-08-19T00:39:24;23.38;;;14.18;;
34982;SDS011;21187;50.976;13.720;2022-08-19T00:44:27;23.65;;;15.25;;
34982;SDS011;21187;50.976;13.720;2022-08-19T00:49:31;21.90;;;14.18;;
34982;SDS011;21187;50.976;13.720;2022-08-19T00:54:38;24.67;;;14.52;;
34982;SDS011;21187;50.976;13.720;2022-08-19T00:59:42;26.38;;;15.57;;
34982;SDS011;21187;50.976;13.720;2022-08-19T01:05:04;26.85;;;15.93;;
34982;SDS011;21187;50.976;13.720;2022-08-19T01:10:11;29.27;;;15.80;;
34982;SDS011;21187;50.976;13.720;2022-08-19T01:15:18;29.40;;;17.02;;
34982;SDS011;21187;50.976;13.720;2022-08-19T01:20:24;30.77;;;16.08;;
34982;SDS011;21187;50.976;13.720;2022-08-19T01:25:27;30.13;;;16.05;;
34982;SDS011;21187;50.976;13.720;2022-08-19T01:30:34;37.22;;;17.27;;
34982;SDS011;21187;50.976;13.720;2022-08-19T01:35:36;31.77;;;17.30;;
34982;SDS011;21187;50.976;13.720;2022-08-19T01:40:39;31.85;;;17.95;;
34982;SDS011;21187;50.976;13.720;2022-08-19T01:45:41;28.95;;;16.98;;
34982;SDS011;21187;50.976;13.720;2022-08-19T01:50:43;27.90;;;17.48;;
34982;SDS011;21187;50.976;13.720;2022-08-19T01:55:45;34.17;;;19.27;;
34982;SDS011;21187;50.976;13.720;2022-08-19T02:00:48;31.67;;;18.20;;
34982;SDS011;21187;50.976;13.720;2022-08-19T02:05:54;28.60;;;16.33;;
34982;SDS011;21187;50.976;13.720;2022-08-19T02:10:57;33.33;;;17.02;;
34982;SDS011;21187;50.976;13.720;2022-08-19T02:15:59;34.38;;;17.58;;
34982;SDS011;21187;50.976;13.720;2022-08-19T02:21:04;31.48;;;18.80;;
34982;SDS011;21187;50.976;13.720;2022-08-19T02:26:06;40.63;;;20.60;;
34982;SDS011;21187;50.976;13.720;2022-08-19T02:31:09;32.85;;;18.08;;
34982;SDS011;21187;50.976;13.720;2022-08-19T02:36:13;36.95;;;18.80;;
34982;SDS011;21187;50.976;13.720;2022-08-19T02:41:17;30.00;;;17.88;;
34982;SDS011;21187;50.976;13.720;2022-08-19T02:46:25;29.45;;;17.17;;
34982;SDS011;21187;50.976;13.720;2022-08-19T02:51:31;29.60;;;17.58;;
34982;SDS011;21187;50.976;13.720;2022-08-19T02:56:35;28.30;;;17.33;;
34982;SDS011;21187;50.976;13.720;2022-08-19T03:01:39;34.17;;;19.27;;
34982;SDS011;21187;50.976;13.720;2022-08-19T03:06:44;32.78;;;18.80;;
34982;SDS011;21187;50.976;13.720;2022-08-19T03:11:47;30.10;;;19.30;;
34982;SDS011;21187;50.976;13.720;2022-08-19T03:16:53;32.58;;;19.67;;
34982;SDS011;21187;50.976;13.720;2022-08-19T03:21:55;32.08;;;19.70;;
34982;SDS011;21187;50.976;13.720;2022-08-19T03:26:57;29.83;;;18.60;;
34982;SDS011;21187;50.976;13.720;2022-08-19T03:32:00;34.95;;;18.42;;
34982;SDS011;21187;50.976;13.720;2022-08-19T03:37:08;43.28;;;21.65;;
34982;SDS011;21187;50.976;13.720;2022-08-19T03:42:13;36.65;;;21.83;;
34982;SDS011;21187;50.976;13.720;2022-08-19T03:47:36;32.22;;;19.95;;
34982;SDS011;21187;50.976;13.720;2022-08-19T03:52:39;37.67;;;20.25;;
34982;SDS011;21187;50.976;13.720;2022-08-19T03:57:45;37.35;;;22.00;;
34982;SDS011;21187;50.976;13.720;2022-08-19T04:02:49;39.13;;;21.30;;
34982;SDS011;21187;50.976;13.720;2022-08-19T04:08:01;38.50;;;21.77;;
34982;SDS011;21187;50.976;13.720;2022-08-19T04:13:04;33.22;;;19.63;;
34982;SDS011;21187;50.976;13.720;2022-08-19T04:18:08;34.13;;;21.13;;
34982;SDS011;21187;50.976;13.720;2022-08-19T04:23:11;38.50;;;20.52;;
34982;SDS011;21187;50.976;13.720;2022-08-19T04:28:14;38.75;;;19.90;;
34982;SDS011;21187;50.976;13.720;2022-08-19T04:33:17;36.45;;;19.80;;
34982;SDS011;21187;50.976;13.720;2022-08-19T04:38:28;37.13;;;19.52;;
34982;SDS011;21187;50.976;13.720;2022-08-19T04:43:31;35.30;;;19.02;;
34982;SDS011;21187;50.976;13.720;2022-08-19T04:48:34;34.70;;;19.10;;
34982;SDS011;21187;50.976;13.720;2022-08-19T04:53:43;33.03;;;19.77;;
34982;SDS011;21187;50.976;13.720;2022-08-19T04:58:45;33.55;;;18.55;;
34982;SDS011;21187;50.976;13.720;2022-08-19T05:03:48;32.65;;;19.45;;
34982;SDS011;21187;50.976;13.720;2022-08-19T05:08:50;36.55;;;19.90;;
34982;SDS011;21187;50.976;13.720;2022-08-19T05:13:52;34.90;;;20.55;;
34982;SDS011;21187;50.976;13.720;2022-08-19T05:18:55;38.13;;;21.85;;
34982;SDS011;21187;50.976;13.720;2022-08-19T05:24:16;37.08;;;20.30;;
34982;SDS011;21187;50.976;13.720;2022-08-19T05:29:20;33.45;;;20.30;;
34982;SDS011;21187;50.976;13.720;2022-08-19T05:34:23;34.83;;;21.02;;
34982;SDS011;21187;50.976;13.720;2022-08-19T05:39:29;38.10;;;19.65;;
34982;SDS011;21187;50.976;13.720;2022-08-19T05:44:35;33.08;;;19.95;;
34982;SDS011;21187;50.976;13.720;2022-08-19T05:49:39;36.97;;;20.27;;
34982;SDS011;21187;50.976;13.720;2022-08-19T05:54:41;38.58;;;19.30;;
34982;SDS011;21187;50.976;13.720;2022-08-19T05:59:44;30.25;;;18.67;;
34982;SDS011;21187;50.976;13.720;2022-08-19T06:04:59;30.73;;;17.27;;
34982;SDS011;21187;50.976;13.720;2022-08-19T06:10:01;27.10;;;16.75;;
34982;SDS011;21187;50.976;13.720;2022-08-19T06:15:09;31.35;;;16.73;;
34982;SDS011;21187;50.976;13.720;2022-08-19T06:20:13;23.77;;;14.85;;
34982;SDS011;21187;50.976;13.720;2022-08-19T06:25:16;21.95;;;13.55;;
34982;SDS011;21187;50.976;13.720;2022-08-19T06:30:18;21.42;;;13.10;;
34982;SDS011;21187;50.976;13.720;2022-08-19T06:35:20;23.60;;;12.93;;
34982;SDS011;21187;50.976;13.720;2022-08-19T06:40:22;23.40;;;12.13;;
34982;SDS011;21187;50.976;13.720;2022-08-19T06:45:24;21.48;;;12.90;;
34982;SDS011;21187;50.976;13.720;2022-08-19T06:50:36;19.83;;;12.10;;
34982;SDS011;21187;50.976;13.720;2022-08-19T06:55:40;20.83;;;12.50;;
34982;SDS011;21187;50.976;13.720;2022-08-19T07:00:42;19.55;;;12.27;;
34982;SDS011;21187;50.976;13.720;2022-08-19T07:05:44;21.90;;;12.40;;
34982;SDS011;21187;50.976;13.720;2022-08-19T07:10:46;21.38;;;12.38;;
34982;SDS011;21187;50.976;13.720;2022-08-19T07:15:49;22.33;;;12.57;;
34982;SDS011;21187;50.976;13.720;2022-08-19T07:21:01;21.50;;;13.25;;
34982;SDS011;21187;50.976;13.720;2022-08-19T07:26:11;22.65;;;14.35;;
34982;SDS011;21187;50.976;13.720;2022-08-19T07:31:18;27.55;;;14.88;;
34982;SDS011;21187;50.976;13.720;2022-08-19T07:36:25;21.67;;;12.32;;
34982;SDS011;21187;50.976;13.720;2022-08-19T07:41:34;24.70;;;14.25;;
34982;SDS011;21187;50.976;13.720;2022-08-19T07:46:39;21.25;;;13.32;;
34982;SDS011;21187;50.976;13.720;2022-08-19T07:51:53;24.05;;;13.90;;
34982;SDS011;21187;50.976;13.720;2022-08-19T07:56:57;24.77;;;14.20;;
34982;SDS011;21187;50.976;13.720;2022-08-19T08:02:00;24.30;;;13.75;;
34982;SDS011;21187;50.976;13.720;2022-08-19T08:07:04;25.92;;;13.45;;
34982;SDS011;21187;50.976;13.720;2022-08-19T08:12:34;22.50;;;12.77;;
34982;SDS011;21187;50.976;13.720;2022-08-19T08:17:40;27.50;;;14.43;;
34982;SDS011;21187;50.976;13.720;2022-08-19T08:22:51;28.33;;;15.50;;
34982;SDS011;21187;50.976;13.720;2022-08-19T08:28:12;33.60;;;17.02;;
34982;SDS011;21187;50.976;13.720;2022-08-19T08:33:19;27.63;;;15.63;;
34982;SDS011;21187;50.976;13.720;2022-08-19T08:38:36;34.53;;;18.10;;
34982;SDS011;21187;50.976;13.720;2022-08-19T08:43:40;34.35;;;16.83;;
34982;SDS011;21187;50.976;13.720;2022-08-19T08:48:58;30.38;;;16.85;;
34982;SDS011;21187;50.976;13.720;2022-08-19T08:54:01;31.98;;;17.60;;
34982;SDS011;21187;50.976;13.720;2022-08-19T08:59:21;28.88;;;15.95;;
34982;SDS011;21187;50.976;13.720;2022-08-19T09:04:28;25.33;;;14.73;;
34982;SDS011;21187;50.976;13.720;2022-08-19T09:09:39;23.00;;;13.45;;
34982;SDS011;21187;50.976;13.720;2022-08-19T09:24:56;17.45;;;10.32;;
34982;SDS011;21187;50.976;13.720;2022-08-19T09:29:58;18.23;;;10.55;;
34982;SDS011;21187;50.976;13.720;2022-08-19T09:35:01;21.63;;;11.98;;
34982;SDS011;21187;50.976;13.720;2022-08-19T09:40:09;20.63;;;12.15;;
34982;SDS011;21187;50.976;13.720;2022-08-19T09:45:13;20.85;;;10.50;;
34982;SDS011;21187;50.976;13.720;2022-08-19T09:50:17;21.20;;;11.07;;
34982;SDS011;21187;50.976;13.720;2022-08-19T09:55:19;20.42;;;12.07;;
34982;SDS011;21187;50.976;13.720;2022-08-19T10:00:24;17.95;;;11.75;;
34982;SDS011;21187;50.976;13.720;2022-08-19T10:05:26;17.90;;;11.00;;
34982;SDS011;21187;50.976;13.720;2022-08-19T10:10:49;15.73;;;10.07;;
34982;SDS011;21187;50.976;13.720;2022-08-19T10:15:52;11.55;;;7.88;;
34982;SDS011;21187;50.976;13.720;2022-08-19T10:21:06;16.38;;;7.25;;
34982;SDS011;21187;50.976;13.720;2022-08-19T10:26:16;11.77;;;8.00;;
34982;SDS011;21187;50.976;13.720;2022-08-19T10:31:22;14.23;;;8.05;;
34982;SDS011;21187;50.976;13.720;2022-08-19T10:36:51;10.15;;;6.93;;
34982;SDS011;21187;50.976;13.720;2022-08-19T10:41:57;13.23;;;7.05;;
34982;SDS011;21187;50.976;13.720;2022-08-19T10:46:59;16.70;;;7.15;;
34982;SDS011;21187;50.976;13.720;2022-08-19T10:52:01;8.60;;;5.95;;
34982;SDS011;21187;50.976;13.720;2022-08-19T10:57:32;9.45;;;5.57;;
34982;SDS011;21187;50.976;13.720;2022-08-19T11:02:54;6.82;;;5.03;;
34982;SDS011;21187;50.976;13.720;2022-08-19T11:07:57;8.43;;;5.00;;
34982;SDS011;21187;50.976;13.720;2022-08-19T11:13:03;8.25;;;4.18;;
34982;SDS011;21187;50.976;13.720;2022-08-19T11:18:06;6.45;;;3.90;;
34982;SDS011;21187;50.976;13.720;2022-08-19T11:23:13;5.30;;;3.85;;
34982;SDS011;21187;50.976;13.720;2022-08-19T11:28:15;6.18;;;3.55;;
34982;SDS011;21187;50.976;13.720;2022-08-19T11:33:17;5.82;;;3.85;;
34982;SDS011;21187;50.976;13.720;2022-08-19T11:38:20;5.00;;;3.72;;
34982;SDS011;21187;50.976;13.720;2022-08-19T11:43:22;5.82;;;4.10;;
34982;SDS011;21187;50.976;13.720;2022-08-19T11:48:24;6.40;;;3.88;;
34982;SDS011;21187;50.976;13.720;2022-08-19T11:53:26;6.03;;;4.47;;
34982;SDS011;21187;50.976;13.720;2022-08-19T11:58:31;6.60;;;4.35;;
34982;SDS011;21187;50.976;13.720;2022-08-19T12:03:34;5.82;;;4.38;;
34982;SDS011;21187;50.976;13.720;2022-08-19T12:08:37;12.63;;;8.25;;
34982;SDS011;21187;50.976;13.720;2022-08-19T12:13:40;15.48;;;9.07;;
34982;SDS011;21187;50.976;13.720;2022-08-19T12:18:46;19.77;;;11.48;;
34982;SDS011;21187;50.976;13.720;2022-08-19T12:23:49;18.15;;;10.60;;
34982;SDS011;21187;50.976;13.720;2022-08-19T12:28:56;18.58;;;10.73;;
34982;SDS011;21187;50.976;13.720;2022-08-19T12:34:00;20.60;;;11.85;;
34982;SDS011;21187;50.976;13.720;2022-08-19T12:39:03;22.48;;;13.25;;
34982;SDS011;21187;50.976;13.720;2022-08-19T12:44:05;27.92;;;14.07;;
34982;SDS011;21187;50.976;13.720;2022-08-19T12:49:09;22.65;;;12.88;;
34982;SDS011;21187;50.976;13.720;2022-08-19T12:54:32;22.83;;;13.65;;
34982;SDS011;21187;50.976;13.720;2022-08-19T12:59:34;25.60;;;14.48;;
34982;SDS011;21187;50.976;13.720;2022-08-19T13:04:37;28.30;;;16.20;;
34982;SDS011;21187;50.976;13.720;2022-08-19T13:09:42;25.33;;;14.52;;
34982;SDS011;21187;50.976;13.720;2022-08-19T13:14:44;29.58;;;16.67;;
34982;SDS011;21187;50.976;13.720;2022-08-19T13:19:51;35.85;;;15.65;;
34982;SDS011;21187;50.976;13.720;2022-08-19T13:24:53;29.58;;;15.90;;
34982;SDS011;21187;50.976;13.720;2022-08-19T13:29:55;28.75;;;15.95;;
34982;SDS011;21187;50.976;13.720;2022-08-19T13:35:16;28.05;;;17.02;;
34982;SDS011;21187;50.976;13.720;2022-08-19T13:40:20;31.67;;;17.73;;
34982;SDS011;21187;50.976;13.720;2022-08-19T13:45:25;28.27;;;14.52;;
34982;SDS011;21187;50.976;13.720;2022-08-19T13:50:29;27.45;;;16.27;;
34982;SDS011;21187;50.976;13.720;2022-08-19T13:55:36;37.97;;;21.42;;
34982;SDS011;21187;50.976;13.720;2022-08-19T14:00:43;43.15;;;22.35;;
34982;SDS011;21187;50.976;13.720;2022-08-19T14:05:46;52.65;;;24.75;;
34982;SDS011;21187;50.976;13.720;2022-08-19T14:10:49;44.55;;;23.67;;
34982;SDS011;21187;50.976;13.720;2022-08-19T14:15:51;56.60;;;25.92;;
34982;SDS011;21187;50.976;13.720;2022-08-19T14:20:53;52.10;;;25.83;;
34982;SDS011;21187;50.976;13.720;2022-08-19T14:26:09;52.47;;;26.38;;
34982;SDS011;21187;50.976;13.720;2022-08-19T14:31:13;60.38;;;27.23;;
34982;SDS011;21187;50.976;13.720;2022-08-19T14:36:20;57.88;;;27.33;;
34982;SDS011;21187;50.976;13.720;2022-08-19T14:41:23;48.45;;;25.08;;
34982;SDS011;21187;50.976;13.720;2022-08-19T14:46:26;46.20;;;23.83;;
34982;SDS011;21187;50.976;13.720;2022-08-19T14:51:30;43.67;;;22.52;;
34982;SDS011;21187;50.976;13.720;2022-08-19T14:56:33;43.70;;;22.88;;
34982;SDS011;21187;50.976;13.720;2022-08-19T15:01:34;39.80;;;21.98;;
34982;SDS011;21187;50.976;13.720;2022-08-19T15:06:37;52.58;;;23.55;;
34982;SDS011;21187;50.976;13.720;2022-08-19T15:11:39;46.45;;;23.40;;
34982;SDS011;21187;50.976;13.720;2022-08-19T15:16:41;52.65;;;26.52;;
34982;SDS011;21187;50.976;13.720;2022-08-19T15:21:43;58.55;;;26.05;;
34982;SDS011;21187;50.976;13.720;2022-08-19T15:26:45;47.33;;;24.92;;
34982;SDS011;21187;50.976;13.720;2022-08-19T15:31:46;47.22;;;26.02;;
34982;SDS011;21187;50.976;13.720;2022-08-19T15:36:49;50.88;;;26.42;;
34982;SDS011;21187;50.976;13.720;2022-08-19T15:41:52;50.20;;;24.90;;
34982;SDS011;21187;50.976;13.720;2022-08-19T15:46:54;42.33;;;23.15;;
34982;SDS011;21187;50.976;13.720;2022-08-19T15:51:56;44.50;;;22.45;;
34982;SDS011;21187;50.976;13.720;2022-08-19T15:57:00;38.25;;;20.77;;
34982;SDS011;21187;50.976;13.720;2022-08-19T16:02:22;39.47;;;21.27;;
34982;SDS011;21187;50.976;13.720;2022-08-19T16:07:46;43.92;;;21.38;;
34982;SDS011;21187;50.976;13.720;2022-08-19T16:12:48;34.35;;;19.40;;
34982;SDS011;21187;50.976;13.720;2022-08-19T16:17:50;33.83;;;18.85;;
34982;SDS011;21187;50.976;13.720;2022-08-19T16:22:58;35.67;;;20.15;;
34982;SDS011;21187;50.976;13.720;2022-08-19T16:28:00;31.63;;;19.40;;
34982;SDS011;21187;50.976;13.720;2022-08-19T16:33:08;32.03;;;18.40;;
34982;SDS011;21187;50.976;13.720;2022-08-19T16:38:11;34.08;;;17.85;;
34982;SDS011;21187;50.976;13.720;2022-08-19T16:43:13;30.83;;;17.42;;
34982;SDS011;21187;50.976;13.720;2022-08-19T16:48:15;31.38;;;17.65;;
34982;SDS011;21187;50.976;13.720;2022-08-19T16:53:17;31.20;;;17.73;;
34982;SDS011;21187;50.976;13.720;2022-08-19T16:58:21;28.65;;;17.02;;
34982;SDS011;21187;50.976;13.720;2022-08-19T17:03:29;31.90;;;17.40;;
34982;SDS011;21187;50.976;13.720;2022-08-19T17:08:37;30.40;;;16.38;;
34982;SDS011;21187;50.976;13.720;2022-08-19T17:13:39;31.60;;;18.30;;
34982;SDS011;21187;50.976;13.720;2022-08-19T17:18:43;35.75;;;19.38;;
34982;SDS011;21187;50.976;13.720;2022-08-19T17:23:46;34.55;;;19.38;;
34982;SDS011;21187;50.976;13.720;2022-08-19T17:28:49;31.70;;;18.45;;
34982;SDS011;21187;50.976;13.720;2022-08-19T17:33:52;31.45;;;17.33;;
34982;SDS011;21187;50.976;13.720;2022-08-19T17:38:57;33.65;;;17.40;;
34982;SDS011;21187;50.976;13.720;2022-08-19T17:44:01;30.38;;;16.45;;
34982;SDS011;21187;50.976;13.720;2022-08-19T17:49:04;29.13;;;15.32;;
34982;SDS011;21187;50.976;13.720;2022-08-19T17:54:08;26.55;;;15.98;;
34982;SDS011;21187;50.976;13.720;2022-08-19T17:59:13;33.10;;;17.45;;
34982;SDS011;21187;50.976;13.720;2022-08-19T18:04:16;30.10;;;17.05;;
34982;SDS011;21187;50.976;13.720;2022-08-19T18:09:23;31.45;;;15.32;;
34982;SDS011;21187;50.976;13.720;2022-08-19T18:14:43;34.50;;;17.55;;
34982;SDS011;21187;50.976;13.720;2022-08-19T18:19:45;33.08;;;16.58;;
34982;SDS011;21187;50.976;13.720;2022-08-19T18:24:48;30.25;;;16.10;;
34982;SDS011;21187;50.976;13.720;2022-08-19T18:29:50;32.08;;;16.10;;
34982;SDS011;21187;50.976;13.720;2022-08-19T18:34:53;32.42;;;17.45;;
34982;SDS011;21187;50.976;13.720;2022-08-19T18:39:55;32.47;;;17.67;;
34982;SDS011;21187;50.976;13.720;2022-08-19T18:45:17;32.75;;;17.05;;
34982;SDS011;21187;50.976;13.720;2022-08-19T18:50:52;38.55;;;18.60;;
34982;SDS011;21187;50.976;13.720;2022-08-19T18:55:54;35.83;;;18.50;;
34982;SDS011;21187;50.976;13.720;2022-08-19T19:00:57;34.10;;;18.13;;
34982;SDS011;21187;50.976;13.720;2022-08-19T19:06:02;34.40;;;16.98;;
34982;SDS011;21187;50.976;13.720;2022-08-19T19:11:06;37.83;;;18.30;;
34982;SDS011;21187;50.976;13.720;2022-08-19T19:16:09;36.92;;;19.08;;
34982;SDS011;21187;50.976;13.720;2022-08-19T19:21:12;38.47;;;21.00;;
34982;SDS011;21187;50.976;13.720;2022-08-19T19:26:14;48.13;;;24.30;;
34982;SDS011;21187;50.976;13.720;2022-08-19T19:31:18;45.60;;;22.83;;
34982;SDS011;21187;50.976;13.720;2022-08-19T19:41:29;48.35;;;24.33;;
34982;SDS011;21187;50.976;13.720;2022-08-19T19:46:33;45.38;;;23.92;;
34982;SDS011;21187;50.976;13.720;2022-08-19T19:51:40;49.15;;;23.20;;
34982;SDS011;21187;50.976;13.720;2022-08-19T19:56:45;47.05;;;23.58;;
34982;SDS011;21187;50.976;13.720;2022-08-19T20:01:49;45.38;;;22.67;;
34982;SDS011;21187;50.976;13.720;2022-08-19T20:06:55;44.60;;;21.58;;
34982;SDS011;21187;50.976;13.720;2022-08-19T20:11:57;47.70;;;21.50;;
34982;SDS011;21187;50.976;13.720;2022-08-19T20:16:59;42.05;;;22.33;;
34982;SDS011;21187;50.976;13.720;2022-08-19T20:22:03;44.10;;;20.08;;
34982;SDS011;21187;50.976;13.720;2022-08-19T20:27:06;39.55;;;20.77;;
34982;SDS011;21187;50.976;13.720;2022-08-19T20:32:11;43.15;;;20.58;;
34982;SDS011;21187;50.976;13.720;2022-08-19T20:37:13;44.20;;;21.45;;
34982;SDS011;21187;50.976;13.720;2022-08-19T20:42:15;49.63;;;19.27;;
34982;SDS011;21187;50.976;13.720;2022-08-19T20:47:17;44.13;;;20.25;;
34982;SDS011;21187;50.976;13.720;2022-08-19T20:52:19;41.65;;;20.80;;
34982;SDS011;21187;50.976;13.720;2022-08-19T20:57:21;38.75;;;19.58;;
34982;SDS011;21187;50.976;13.720;2022-08-19T21:02:23;41.38;;;19.70;;
34982;SDS011;21187;50.976;13.720;2022-08-19T21:07:25;31.17;;;17.50;;
34982;SDS011;21187;50.976;13.720;2022-08-19T21:12:40;50.30;;;21.17;;
34982;SDS011;21187;50.976;13.720;2022-08-19T21:17:42;40.67;;;19.77;;
34982;SDS011;21187;50.976;13.720;2022-08-19T21:22:44;38.35;;;19.17;;
34982;SDS011;21187;50.976;13.720;2022-08-19T21:27:46;40.78;;;18.17;;
34982;SDS011;21187;50.976;13.720;2022-08-19T21:32:48;39.05;;;18.45;;
34982;SDS011;21187;50.976;13.720;2022-08-19T21:37:53;40.20;;;17.70;;
34982;SDS011;21187;50.976;13.720;2022-08-19T21:42:55;36.67;;;17.38;;
34982;SDS011;21187;50.976;13.720;2022-08-19T21:47:57;35.75;;;17.92;;
34982;SDS011;21187;50.976;13.720;2022-08-19T21:53:00;34.75;;;17.70;;
34982;SDS011;21187;50.976;13.720;2022-08-19T21:58:02;32.42;;;17.67;;
34982;SDS011;21187;50.976;13.720;2022-08-19T22:03:05;35.28;;;18.35;;
34982;SDS011;21187;50.976;13.720;2022-08-19T22:08:08;41.88;;;19.45;;
34982;SDS011;21187;50.976;13.720;2022-08-19T22:13:11;39.38;;;18.35;;
34982;SDS011;21187;50.976;13.720;2022-08-19T22:18:12;34.90;;;17.48;;
34982;SDS011;21187;50.976;13.720;2022-08-19T22:23:19;33.25;;;17.98;;
34982;SDS011;21187;50.976;13.720;2022-08-19T22:28:21;35.85;;;17.90;;
34982;SDS011;21187;50.976;13.720;2022-08-19T22:33:28;37.60;;;17.15;;
34982;SDS011;21187;50.976;13.720;2022-08-19T22:38:32;37.38;;;19.20;;
34982;SDS011;21187;50.976;13.720;2022-08-19T22:43:35;36.67;;;17.88;;
34982;SDS011;21187;50.976;13.720;2022-08-19T22:48:38;40.03;;;18.10;;
34982;SDS011;21187;50.976;13.720;2022-08-19T22:53:40;44.80;;;20.08;;
34982;SDS011;21187;50.976;13.720;2022-08-19T22:58:45;31.80;;;17.50;;
34982;SDS011;21187;50.976;13.720;2022-08-19T23:03:51;40.95;;;19.23;;
34982;SDS011;21187;50.976;13.720;2022-08-19T23:08:52;39.20;;;17.23;;
34982;SDS011;21187;50.976;13.720;2022-08-19T23:13:55;40.58;;;19.08;;
34982;SDS011;21187;50.976;13.720;2022-08-19T23:18:57;36.08;;;17.77;;
34982;SDS011;21187;50.976;13.720;2022-08-19T23:23:59;35.55;;;18.15;;
34982;SDS011;21187;50.976;13.720;2022-08-19T23:29:01;40.40;;;18.88;;
34982;SDS011;21187;50.976;13.720;2022-08-19T23:34:22;40.78;;;19.30;;
34982;SDS011;21187;50.976;13.720;2022-08-19T23:39:24;42.75;;;19.33;;
34982;SDS011;21187;50.976;13.720;2022-08-19T23:44:27;38.78;;;18.77;;
34982;SDS011;21187;50.976;13.720;2022-08-19T23:49:29;36.80;;;20.23;;
34982;SDS011;21187;50.976;13.720;2022-08-19T23:54:31;39.85;;;19.92;;
34982;SDS011;21187;50.976;13.720;2022-08-19T23:59:43;43.00;;;20.27;;
